createdAt,value
2022-09-30T00:00:40.652Z,13.98
2022-09-30T00:05:43.700Z,11.50
2022-09-30T00:10:46.732Z,10.98
2022-09-30T00:15:51.207Z,11.55
2022-09-30T00:20:54.631Z,12.93
2022-09-30T00:25:59.875Z,12.43
2022-09-30T00:31:07.403Z,11.57
2022-09-30T00:36:11.313Z,12.60
2022-09-30T00:41:14.487Z,10.85
2022-09-30T00:46:23.826Z,12.20
2022-09-30T00:51:31.091Z,14.50
2022-09-30T00:56:39.443Z,12.65
2022-09-30T01:01:44.505Z,13.80
2022-09-30T01:06:48.230Z,14.18
2022-09-30T01:11:51.307Z,11.27
2022-09-30T01:17:03.255Z,14.32
2022-09-30T01:22:16.887Z,17.95
2022-09-30T01:27:41.776Z,12.27
2022-09-30T01:33:08.667Z,13.60
2022-09-30T01:38:17.600Z,11.93
2022-09-30T01:43:29.780Z,14.48
2022-09-30T01:48:42.548Z,14.18
2022-09-30T01:53:50.053Z,14.55
2022-09-30T01:58:57.273Z,17.63
2022-09-30T02:04:07.226Z,14.60
2022-09-30T02:09:14.924Z,16.45
2022-09-30T02:14:23.424Z,15.27
2022-09-30T02:19:33.581Z,14.68
2022-09-30T02:24:37.788Z,17.77
2022-09-30T02:29:45.781Z,17.02
2022-09-30T02:34:53.629Z,18.50
2022-09-30T02:40:02.464Z,21.50
2022-09-30T02:45:10.314Z,12.70
2022-09-30T02:50:20.382Z,16.27
2022-09-30T02:55:31.695Z,18.90
2022-09-30T03:00:35.047Z,19.33
2022-09-30T03:05:39.956Z,18.77
2022-09-30T03:10:44.031Z,14.88
2022-09-30T03:15:59.712Z,17.67
2022-09-30T03:21:17.597Z,15.40
2022-09-30T03:26:35.058Z,16.88
2022-09-30T03:31:48.148Z,14.65
2022-09-30T03:37:04.321Z,15.70
2022-09-30T03:42:17.266Z,16.70
2022-09-30T03:52:32.199Z,18.65
2022-09-30T03:57:35.326Z,17.23
2022-09-30T04:02:38.437Z,17.73
2022-09-30T04:07:42.891Z,17.08
2022-09-30T04:12:46.187Z,19.97
2022-09-30T04:17:49.638Z,14.68
2022-09-30T04:22:57.475Z,21.55
2022-09-30T04:28:00.960Z,19.77
2022-09-30T04:33:03.970Z,13.23
2022-09-30T04:38:08.406Z,14.82
2022-09-30T04:43:11.453Z,14.83
2022-09-30T04:48:14.894Z,15.18
2022-09-30T04:53:19.451Z,14.95
2022-09-30T04:58:24.582Z,14.47
2022-09-30T05:03:27.712Z,15.80
2022-09-30T05:08:33.844Z,17.75
2022-09-30T05:13:39.897Z,17.08
2022-09-30T05:18:46.230Z,14.95
2022-09-30T05:23:51.100Z,24.00
2022-09-30T05:28:54.354Z,16.60
2022-09-30T05:33:58.336Z,19.50
2022-09-30T05:39:02.962Z,23.30
2022-09-30T05:44:07.216Z,18.20
2022-09-30T05:49:10.544Z,17.00
2022-09-30T05:54:15.137Z,17.83
2022-09-30T05:59:18.985Z,16.77
2022-09-30T06:04:22.726Z,20.15
2022-09-30T06:09:27.206Z,21.90
2022-09-30T06:14:30.434Z,22.40
2022-09-30T06:19:33.513Z,22.27
2022-09-30T06:24:37.875Z,24.23
2022-09-30T06:29:40.957Z,22.58
2022-09-30T06:34:44.916Z,22.25
2022-09-30T06:39:50.747Z,19.45
2022-09-30T06:44:54.368Z,19.02
2022-09-30T06:49:59.148Z,23.85
2022-09-30T06:55:03.943Z,22.87
2022-09-30T07:00:08.374Z,19.37
2022-09-30T07:05:11.418Z,21.40
2022-09-30T07:10:16.291Z,19.52
2022-09-30T07:15:23.248Z,13.47
2022-09-30T07:20:26.334Z,14.25
2022-09-30T07:25:30.695Z,13.70
2022-09-30T07:30:33.742Z,11.90
2022-09-30T07:35:38.118Z,12.48
2022-09-30T07:40:42.678Z,10.37
2022-09-30T07:45:46.117Z,11.70
2022-09-30T07:50:53.491Z,10.95
2022-09-30T07:56:02.225Z,11.38
2022-09-30T08:01:09.407Z,11.23
2022-09-30T08:06:15.053Z,14.10
2022-09-30T08:11:20.082Z,9.90
2022-09-30T08:16:25.277Z,12.35
2022-09-30T08:21:29.437Z,12.20
2022-09-30T08:26:33.930Z,11.73
2022-09-30T08:31:37.481Z,11.95
2022-09-30T08:36:40.705Z,11.48
2022-09-30T08:42:19.179Z,11.05
2022-09-30T08:47:43.021Z,12.38
2022-09-30T08:52:49.907Z,9.77
2022-09-30T08:57:56.426Z,11.73
2022-09-30T09:03:03.257Z,12.85
2022-09-30T09:08:15.747Z,12.32
2022-09-30T09:13:38.563Z,10.68
2022-09-30T09:18:56.474Z,13.07
2022-09-30T09:24:03.040Z,13.50
2022-09-30T09:29:20.553Z,11.82
2022-09-30T09:34:25.584Z,10.48
2022-09-30T09:44:48.308Z,10.07
2022-09-30T09:49:57.713Z,11.35
2022-09-30T09:55:01.187Z,11.52
2022-09-30T10:00:27.178Z,10.43
2022-09-30T10:05:39.781Z,9.38
2022-09-30T10:11:58.819Z,9.55
2022-09-30T10:17:05.171Z,7.68
2022-09-30T10:22:19.569Z,9.52
2022-09-30T10:27:31.131Z,8.00
2022-09-30T10:32:36.834Z,8.45
2022-09-30T10:37:51.639Z,7.28
2022-09-30T10:42:55.411Z,6.72
2022-09-30T10:54:52.156Z,3.83
2022-09-30T11:00:00.726Z,6.18
2022-09-30T11:05:13.434Z,4.75
2022-09-30T11:10:32.967Z,6.50
2022-09-30T11:15:44.834Z,3.92
2022-09-30T11:20:54.414Z,5.03
2022-09-30T11:26:05.353Z,2.00
2022-09-30T11:31:16.092Z,4.50
2022-09-30T11:36:31.414Z,3.67
2022-09-30T11:41:39.511Z,3.83
2022-09-30T11:47:01.533Z,5.20
2022-09-30T11:52:14.088Z,3.25
2022-09-30T11:57:27.057Z,5.18
2022-09-30T12:02:37.753Z,3.75
2022-09-30T12:07:46.333Z,4.32
2022-09-30T12:12:56.167Z,3.10
2022-09-30T12:18:01.880Z,3.33
2022-09-30T12:23:16.852Z,3.63
2022-09-30T12:33:59.882Z,3.72
2022-09-30T12:39:51.448Z,5.30
2022-09-30T12:45:24.848Z,2.67
2022-09-30T12:50:34.975Z,4.80
2022-09-30T12:55:40.944Z,2.35
2022-09-30T13:01:03.265Z,7.32
2022-09-30T13:06:06.893Z,2.67
2022-09-30T13:11:39.480Z,4.40
2022-09-30T13:17:01.346Z,5.13
2022-09-30T13:22:52.646Z,2.10
2022-09-30T13:28:28.716Z,3.88
2022-09-30T13:33:44.752Z,2.88
2022-09-30T13:39:06.999Z,1.92
2022-09-30T13:44:16.673Z,3.05
2022-09-30T13:49:24.912Z,3.90
2022-09-30T13:54:34.078Z,4.03
2022-09-30T13:59:49.267Z,3.15
2022-09-30T14:05:15.205Z,4.38
2022-09-30T14:10:40.944Z,3.97
2022-09-30T14:16:12.231Z,2.40
2022-09-30T14:21:30.753Z,2.67
2022-09-30T14:26:45.936Z,3.28
2022-09-30T14:31:49.239Z,4.85
2022-09-30T14:36:54.816Z,2.83
2022-09-30T14:57:16.045Z,5.05
2022-09-30T15:09:53.566Z,2.47
2022-09-30T16:07:05.960Z,5.07
2022-09-30T16:12:18.254Z,2.85
2022-09-30T16:17:24.835Z,2.13
2022-09-30T16:22:51.672Z,3.05
2022-09-30T16:27:58.755Z,5.07
2022-09-30T16:33:05.236Z,3.63
2022-09-30T16:38:12.557Z,3.33
2022-09-30T16:43:17.157Z,6.35
2022-09-30T16:48:21.628Z,4.33
2022-09-30T16:53:26.156Z,8.67
2022-09-30T16:58:29.750Z,7.10
2022-09-30T17:03:32.949Z,5.85
2022-09-30T17:08:37.416Z,6.18
2022-09-30T17:13:41.376Z,3.80
2022-09-30T17:18:45.118Z,5.47
2022-09-30T17:23:50.040Z,6.55
2022-09-30T17:28:53.672Z,5.82
2022-09-30T17:34:00.789Z,7.07
2022-09-30T17:39:07.591Z,5.95
2022-09-30T17:44:11.049Z,6.00
2022-09-30T17:49:20.698Z,6.28
2022-09-30T17:54:29.502Z,9.20
2022-09-30T18:04:37.887Z,7.40
2022-09-30T18:14:46.490Z,9.60
2022-09-30T18:19:50.157Z,7.77
2022-09-30T18:25:13.676Z,9.85
2022-09-30T18:30:18.238Z,8.70
2022-09-30T18:35:24.560Z,9.23
2022-09-30T18:40:30.452Z,11.77
2022-09-30T18:45:38.440Z,11.93
2022-09-30T18:50:42.052Z,12.45
2022-09-30T18:55:47.386Z,14.52
2022-09-30T19:00:50.554Z,13.57
2022-09-30T19:05:54.124Z,17.33
2022-09-30T19:10:58.617Z,12.80
2022-09-30T19:16:04.360Z,12.93
2022-09-30T19:21:12.980Z,18.67
2022-09-30T19:26:17.460Z,16.45
2022-09-30T19:31:21.247Z,13.60
2022-09-30T19:36:27.139Z,15.77
2022-09-30T19:41:32.292Z,14.48
2022-09-30T19:46:36.039Z,13.00
2022-09-30T19:51:39.758Z,14.60
2022-09-30T19:56:44.781Z,18.45
2022-09-30T20:01:48.371Z,9.75
2022-09-30T20:06:53.741Z,10.00
2022-09-30T20:11:58.170Z,14.30
2022-09-30T20:17:01.229Z,13.50
2022-09-30T20:22:05.362Z,10.70
2022-09-30T20:27:10.566Z,14.30
2022-09-30T20:32:14.109Z,19.73
2022-09-30T20:37:17.205Z,11.57
2022-09-30T20:42:21.578Z,11.50
2022-09-30T20:47:24.943Z,15.45
2022-09-30T20:52:29.369Z,10.38
2022-09-30T20:57:33.814Z,9.52
2022-09-30T21:02:36.921Z,14.80
2022-09-30T21:07:40.019Z,12.23
2022-09-30T21:12:45.157Z,10.20
2022-09-30T21:17:48.331Z,11.17
2022-09-30T21:22:53.866Z,11.32
2022-09-30T21:27:58.703Z,10.65
2022-09-30T21:33:01.782Z,10.53
2022-09-30T21:38:04.914Z,9.80
2022-09-30T21:43:09.923Z,12.73
2022-09-30T21:48:13.345Z,11.07
2022-09-30T21:53:16.674Z,13.88
2022-09-30T21:58:21.216Z,10.25
2022-09-30T22:03:24.775Z,11.17
2022-09-30T22:08:33.031Z,10.75
2022-09-30T22:28:40.579Z,12.20
2022-09-30T22:34:03.239Z,12.05
2022-09-30T22:39:06.459Z,10.15
2022-09-30T22:44:11.187Z,14.93
2022-09-30T22:49:14.481Z,14.33
2022-09-30T22:54:17.808Z,13.40
2022-09-30T22:59:23.481Z,13.60
2022-09-30T23:09:31.143Z,11.80
2022-09-30T23:14:35.867Z,13.57
2022-09-30T23:19:38.906Z,17.77
2022-09-30T23:24:42.109Z,12.02
2022-09-30T23:29:47.205Z,13.52
2022-09-30T23:34:50.203Z,15.23
2022-09-30T23:39:53.317Z,12.88
2022-09-30T23:44:58.133Z,12.15
2022-09-30T23:50:01.189Z,11.93
2022-09-30T23:55:05.145Z,21.80
